sensor_id;sensor_type;location;lat;lon;timestamp;temperature;humidity
7958;DHT22;4024;52.172;5.378;2022-08-11T00:01:36;23.80;99.90
7958;DHT22;4024;52.172;5.378;2022-08-11T00:04:04;23.80;99.90
7958;DHT22;4024;52.172;5.378;2022-08-11T00:06:35;23.80;99.90
7958;DHT22;4024;52.172;5.378;2022-08-11T00:09:04;23.80;99.90
7958;DHT22;4024;52.172;5.378;2022-08-11T00:14:03;23.60;99.90
7958;DHT22;4024;52.172;5.378;2022-08-11T00:16:29;23.70;99.90
7958;DHT22;4024;52.172;5.378;2022-08-11T00:18:56;23.60;99.90
7958;DHT22;4024;52.172;5.378;2022-08-11T00:21:25;23.60;99.90
7958;DHT22;4024;52.172;5.378;2022-08-11T00:26:20;23.50;99.90
7958;DHT22;4024;52.172;5.378;2022-08-11T00:28:47;23.50;99.90
7958;DHT22;4024;52.172;5.378;2022-08-11T00:31:42;23.50;99.90
7958;DHT22;4024;52.172;5.378;2022-08-11T00:34:10;23.40;99.90
7958;DHT22;4024;52.172;5.378;2022-08-11T00:36:49;23.40;99.90
7958;DHT22;4024;52.172;5.378;2022-08-11T00:39:18;23.30;99.90
7958;DHT22;4024;52.172;5.378;2022-08-11T00:47:33;23.20;99.90
7958;DHT22;4024;52.172;5.378;2022-08-11T01:01:56;22.90;99.90
7958;DHT22;4024;52.172;5.378;2022-08-11T01:10:43;22.80;99.90
7958;DHT22;4024;52.172;5.378;2022-08-11T01:35:29;22.30;99.90
7958;DHT22;4024;52.172;5.378;2022-08-11T01:46:42;22.10;99.90
7958;DHT22;4024;52.172;5.378;2022-08-11T01:49:23;22.00;99.90
7958;DHT22;4024;52.172;5.378;2022-08-11T01:52:14;22.00;99.90
7958;DHT22;4024;52.172;5.378;2022-08-11T01:55:24;21.90;99.90
7958;DHT22;4024;52.172;5.378;2022-08-11T01:58:15;21.90;99.90
7958;DHT22;4024;52.172;5.378;2022-08-11T02:00:54;21.80;99.90
7958;DHT22;4024;52.172;5.378;2022-08-11T02:03:34;21.80;99.90
7958;DHT22;4024;52.172;5.378;2022-08-11T02:11:45;21.70;99.90
7958;DHT22;4024;52.172;5.378;2022-08-11T02:14:42;21.60;99.90
7958;DHT22;4024;52.172;5.378;2022-08-11T02:17:21;21.60;99.90
7958;DHT22;4024;52.172;5.378;2022-08-11T02:20:18;21.50;99.90
7958;DHT22;4024;52.172;5.378;2022-08-11T02:23:31;21.50;99.90
7958;DHT22;4024;52.172;5.378;2022-08-11T02:26:17;21.40;99.90
7958;DHT22;4024;52.172;5.378;2022-08-11T02:35:03;21.30;99.90
7958;DHT22;4024;52.172;5.378;2022-08-11T02:45:33;21.20;99.90
7958;DHT22;4024;52.172;5.378;2022-08-11T02:59:40;21.00;99.90
7958;DHT22;4024;52.172;5.378;2022-08-11T03:08:10;20.90;99.90
7958;DHT22;4024;52.172;5.378;2022-08-11T03:11:11;20.80;99.90
7958;DHT22;4024;52.172;5.378;2022-08-11T03:17:27;20.80;99.90
7958;DHT22;4024;52.172;5.378;2022-08-11T03:23:02;20.70;99.90
7958;DHT22;4024;52.172;5.378;2022-08-11T03:26:06;20.70;99.90
7958;DHT22;4024;52.172;5.378;2022-08-11T03:32:00;20.60;99.90
7958;DHT22;4024;52.172;5.378;2022-08-11T03:34:29;20.60;99.90
7958;DHT22;4024;52.172;5.378;2022-08-11T03:37:18;20.50;99.90
7958;DHT22;4024;52.172;5.378;2022-08-11T03:42:54;20.40;99.90
7958;DHT22;4024;52.172;5.378;2022-08-11T03:48:58;20.40;99.90
7958;DHT22;4024;52.172;5.378;2022-08-11T03:51:38;20.30;99.90
7958;DHT22;4024;52.172;5.378;2022-08-11T03:54:23;20.30;99.90
7958;DHT22;4024;52.172;5.378;2022-08-11T04:15:11;20.10;99.90
7958;DHT22;4024;52.172;5.378;2022-08-11T04:21:34;20.00;99.90
7958;DHT22;4024;52.172;5.378;2022-08-11T04:26:54;20.00;99.90
7958;DHT22;4024;52.172;5.378;2022-08-11T04:35:07;19.90;99.90
7958;DHT22;4024;52.172;5.378;2022-08-11T04:46:13;19.80;99.90
7958;DHT22;4024;52.172;5.378;2022-08-11T04:58:21;19.80;99.90
7958;DHT22;4024;52.172;5.378;2022-08-11T05:01:22;19.80;99.90
7958;DHT22;4024;52.172;5.378;2022-08-11T05:04:20;19.80;99.90
7958;DHT22;4024;52.172;5.378;2022-08-11T05:10:53;19.80;99.90
7958;DHT22;4024;52.172;5.378;2022-08-11T05:13:33;19.80;99.90
7958;DHT22;4024;52.172;5.378;2022-08-11T05:16:34;19.80;99.90
7958;DHT22;4024;52.172;5.378;2022-08-11T05:19:24;19.80;99.90
7958;DHT22;4024;52.172;5.378;2022-08-11T05:22:11;19.90;99.90
7958;DHT22;4024;52.172;5.378;2022-08-11T05:28:40;19.90;99.90
7958;DHT22;4024;52.172;5.378;2022-08-11T05:31:32;19.90;99.90
7958;DHT22;4024;52.172;5.378;2022-08-11T05:34:26;19.90;99.90
7958;DHT22;4024;52.172;5.378;2022-08-11T05:37:30;20.00;99.90
7958;DHT22;4024;52.172;5.378;2022-08-11T05:40:08;20.00;99.90
7958;DHT22;4024;52.172;5.378;2022-08-11T05:43:01;20.00;99.90
7958;DHT22;4024;52.172;5.378;2022-08-11T05:46:01;20.10;99.90
7958;DHT22;4024;52.172;5.378;2022-08-11T05:48:47;20.10;99.90
7958;DHT22;4024;52.172;5.378;2022-08-11T05:51:42;20.20;99.90
7958;DHT22;4024;52.172;5.378;2022-08-11T05:54:28;20.20;99.90
7958;DHT22;4024;52.172;5.378;2022-08-11T05:57:22;20.30;99.90
7958;DHT22;4024;52.172;5.378;2022-08-11T06:00:05;20.30;99.90
7958;DHT22;4024;52.172;5.378;2022-08-11T06:02:48;20.30;99.90
7958;DHT22;4024;52.172;5.378;2022-08-11T06:05:17;20.40;99.90
7958;DHT22;4024;52.172;5.378;2022-08-11T06:07:47;20.50;99.90
7958;DHT22;4024;52.172;5.378;2022-08-11T06:10:13;20.50;99.90
7958;DHT22;4024;52.172;5.378;2022-08-11T06:12:41;20.60;99.90
7958;DHT22;4024;52.172;5.378;2022-08-11T06:15:10;20.70;99.90
7958;DHT22;4024;52.172;5.378;2022-08-11T06:17:44;20.80;99.90
7958;DHT22;4024;52.172;5.378;2022-08-11T06:20:11;20.80;99.90
7958;DHT22;4024;52.172;5.378;2022-08-11T06:22:38;20.90;99.90
7958;DHT22;4024;52.172;5.378;2022-08-11T06:25:07;21.00;99.90
7958;DHT22;4024;52.172;5.378;2022-08-11T06:27:36;21.10;99.90
7958;DHT22;4024;52.172;5.378;2022-08-11T06:30:04;21.10;99.90
7958;DHT22;4024;52.172;5.378;2022-08-11T06:32:44;21.20;99.90
7958;DHT22;4024;52.172;5.378;2022-08-11T06:40:46;21.40;99.90
7958;DHT22;4024;52.172;5.378;2022-08-11T06:46:17;21.60;99.90
7958;DHT22;4024;52.172;5.378;2022-08-11T06:48:47;21.70;99.90
7958;DHT22;4024;52.172;5.378;2022-08-11T06:51:14;21.70;99.90
7958;DHT22;4024;52.172;5.378;2022-08-11T06:53:52;21.80;99.90
7958;DHT22;4024;52.172;5.378;2022-08-11T06:56:26;21.80;99.90
7958;DHT22;4024;52.172;5.378;2022-08-11T06:59:13;21.90;99.90
7958;DHT22;4024;52.172;5.378;2022-08-11T07:02:12;22.00;99.90
7958;DHT22;4024;52.172;5.378;2022-08-11T07:05:10;22.00;99.90
7958;DHT22;4024;52.172;5.378;2022-08-11T07:14:03;22.20;99.90
7958;DHT22;4024;52.172;5.378;2022-08-11T07:16:49;22.30;99.90
7958;DHT22;4024;52.172;5.378;2022-08-11T07:19:21;22.40;99.90
7958;DHT22;4024;52.172;5.378;2022-08-11T07:22:12;22.40;99.90
7958;DHT22;4024;52.172;5.378;2022-08-11T07:25:20;22.60;99.90
7958;DHT22;4024;52.172;5.378;2022-08-11T07:28:17;22.60;99.90
7958;DHT22;4024;52.172;5.378;2022-08-11T07:31:08;22.70;99.90
7958;DHT22;4024;52.172;5.378;2022-08-11T07:33:51;22.80;99.90
7958;DHT22;4024;52.172;5.378;2022-08-11T07:36:17;22.90;99.90
7958;DHT22;4024;52.172;5.378;2022-08-11T07:38:46;23.00;99.90
7958;DHT22;4024;52.172;5.378;2022-08-11T07:41:21;23.10;99.90
7958;DHT22;4024;52.172;5.378;2022-08-11T07:43:57;23.20;99.90
7958;DHT22;4024;52.172;5.378;2022-08-11T07:46:38;23.20;99.90
7958;DHT22;4024;52.172;5.378;2022-08-11T07:49:23;23.30;99.90
7958;DHT22;4024;52.172;5.378;2022-08-11T07:52:08;23.40;99.90
7958;DHT22;4024;52.172;5.378;2022-08-11T07:54:54;23.50;99.90
7958;DHT22;4024;52.172;5.378;2022-08-11T07:57:20;23.60;99.90
7958;DHT22;4024;52.172;5.378;2022-08-11T08:00:05;23.60;99.90
7958;DHT22;4024;52.172;5.378;2022-08-11T08:02:50;23.80;99.90
7958;DHT22;4024;52.172;5.378;2022-08-11T08:05:36;23.80;99.90
7958;DHT22;4024;52.172;5.378;2022-08-11T08:08:21;23.90;99.90
7958;DHT22;4024;52.172;5.378;2022-08-11T08:11:07;24.00;99.90
7958;DHT22;4024;52.172;5.378;2022-08-11T08:13:52;24.10;99.90
7958;DHT22;4024;52.172;5.378;2022-08-11T08:16:38;24.20;99.90
7958;DHT22;4024;52.172;5.378;2022-08-11T08:19:22;24.40;99.90
7958;DHT22;4024;52.172;5.378;2022-08-11T08:21:49;24.50;99.90
7958;DHT22;4024;52.172;5.378;2022-08-11T08:24:17;24.60;99.90
7958;DHT22;4024;52.172;5.378;2022-08-11T08:26:44;24.60;99.90
7958;DHT22;4024;52.172;5.378;2022-08-11T08:29:35;24.70;99.90
7958;DHT22;4024;52.172;5.378;2022-08-11T08:32:20;24.80;99.90
7958;DHT22;4024;52.172;5.378;2022-08-11T08:34:51;24.90;99.90
7958;DHT22;4024;52.172;5.378;2022-08-11T08:37:18;25.00;99.90
7958;DHT22;4024;52.172;5.378;2022-08-11T08:39:45;25.10;99.90
7958;DHT22;4024;52.172;5.378;2022-08-11T08:42:12;25.10;99.90
7958;DHT22;4024;52.172;5.378;2022-08-11T08:44:44;25.20;99.90
7958;DHT22;4024;52.172;5.378;2022-08-11T08:47:17;25.30;99.90
7958;DHT22;4024;52.172;5.378;2022-08-11T08:49:54;25.20;99.90
7958;DHT22;4024;52.172;5.378;2022-08-11T08:52:23;25.40;99.90
7958;DHT22;4024;52.172;5.378;2022-08-11T08:54:54;25.50;99.90
7958;DHT22;4024;52.172;5.378;2022-08-11T08:57:22;25.60;99.90
7958;DHT22;4024;52.172;5.378;2022-08-11T08:59:49;25.70;99.90
7958;DHT22;4024;52.172;5.378;2022-08-11T09:02:18;25.70;99.90
7958;DHT22;4024;52.172;5.378;2022-08-11T09:04:45;25.80;99.90
7958;DHT22;4024;52.172;5.378;2022-08-11T09:07:13;25.90;99.90
7958;DHT22;4024;52.172;5.378;2022-08-11T09:09:47;26.00;99.90
7958;DHT22;4024;52.172;5.378;2022-08-11T09:12:14;26.10;99.90
7958;DHT22;4024;52.172;5.378;2022-08-11T09:14:45;26.20;99.90
7958;DHT22;4024;52.172;5.378;2022-08-11T09:17:37;26.30;99.90
7958;DHT22;4024;52.172;5.378;2022-08-11T09:20:11;26.40;99.90
7958;DHT22;4024;52.172;5.378;2022-08-11T09:22:40;26.50;99.90
7958;DHT22;4024;52.172;5.378;2022-08-11T09:25:26;26.50;99.90
7958;DHT22;4024;52.172;5.378;2022-08-11T09:28:14;26.60;99.90
7958;DHT22;4024;52.172;5.378;2022-08-11T09:30:41;26.80;99.90
7958;DHT22;4024;52.172;5.378;2022-08-11T09:33:09;26.80;99.90
7958;DHT22;4024;52.172;5.378;2022-08-11T09:35:39;26.90;99.90
7958;DHT22;4024;52.172;5.378;2022-08-11T09:38:10;27.00;99.90
7958;DHT22;4024;52.172;5.378;2022-08-11T09:40:55;27.10;99.90
7958;DHT22;4024;52.172;5.378;2022-08-11T09:43:21;27.20;99.90
7958;DHT22;4024;52.172;5.378;2022-08-11T09:46:06;27.30;99.90
7958;DHT22;4024;52.172;5.378;2022-08-11T09:48:40;27.40;99.90
7958;DHT22;4024;52.172;5.378;2022-08-11T09:51:07;27.40;99.90
7958;DHT22;4024;52.172;5.378;2022-08-11T09:53:39;27.60;99.90
7958;DHT22;4024;52.172;5.378;2022-08-11T09:56:10;27.70;99.90
7958;DHT22;4024;52.172;5.378;2022-08-11T09:58:56;27.70;99.70
7958;DHT22;4024;52.172;5.378;2022-08-11T10:01:27;27.90;99.50
7958;DHT22;4024;52.172;5.378;2022-08-11T10:04:15;28.00;98.80
7958;DHT22;4024;52.172;5.378;2022-08-11T10:06:43;28.10;98.40
7958;DHT22;4024;52.172;5.378;2022-08-11T10:09:51;28.10;97.80
7958;DHT22;4024;52.172;5.378;2022-08-11T10:12:30;28.20;97.00
7958;DHT22;4024;52.172;5.378;2022-08-11T10:15:01;28.40;96.60
7958;DHT22;4024;52.172;5.378;2022-08-11T10:17:48;28.50;94.90
7958;DHT22;4024;52.172;5.378;2022-08-11T10:20:36;28.70;93.80
7958;DHT22;4024;52.172;5.378;2022-08-11T10:23:03;28.70;93.20
7958;DHT22;4024;52.172;5.378;2022-08-11T10:25:47;28.80;93.00
7958;DHT22;4024;52.172;5.378;2022-08-11T10:28:34;28.90;91.30
7958;DHT22;4024;52.172;5.378;2022-08-11T10:31:01;29.00;91.30
7958;DHT22;4024;52.172;5.378;2022-08-11T10:33:48;29.10;89.90
7958;DHT22;4024;52.172;5.378;2022-08-11T10:36:54;29.20;90.10
7958;DHT22;4024;52.172;5.378;2022-08-11T10:39:23;29.30;88.10
7958;DHT22;4024;52.172;5.378;2022-08-11T10:41:49;29.30;85.20
7958;DHT22;4024;52.172;5.378;2022-08-11T10:44:42;29.40;84.50
7958;DHT22;4024;52.172;5.378;2022-08-11T10:47:11;29.50;79.70
7958;DHT22;4024;52.172;5.378;2022-08-11T10:49:57;29.60;79.80
7958;DHT22;4024;52.172;5.378;2022-08-11T10:52:44;29.60;78.30
7958;DHT22;4024;52.172;5.378;2022-08-11T10:55:31;29.70;77.70
7958;DHT22;4024;52.172;5.378;2022-08-11T10:58:15;29.80;75.50
7958;DHT22;4024;52.172;5.378;2022-08-11T11:01:01;29.90;75.20
7958;DHT22;4024;52.172;5.378;2022-08-11T11:03:29;30.00;73.80
7958;DHT22;4024;52.172;5.378;2022-08-11T11:06:07;30.20;73.30
7958;DHT22;4024;52.172;5.378;2022-08-11T11:08:39;30.20;71.60
7958;DHT22;4024;52.172;5.378;2022-08-11T11:11:32;30.30;70.10
7958;DHT22;4024;52.172;5.378;2022-08-11T11:14:19;30.50;70.20
7958;DHT22;4024;52.172;5.378;2022-08-11T11:17:05;30.50;69.30
7958;DHT22;4024;52.172;5.378;2022-08-11T11:19:39;30.70;71.00
7958;DHT22;4024;52.172;5.378;2022-08-11T11:22:06;30.80;69.60
7958;DHT22;4024;52.172;5.378;2022-08-11T11:25:03;30.80;69.00
7958;DHT22;4024;52.172;5.378;2022-08-11T11:27:41;30.90;67.50
7958;DHT22;4024;52.172;5.378;2022-08-11T11:30:12;30.90;66.00
7958;DHT22;4024;52.172;5.378;2022-08-11T11:35:40;31.10;66.70
7958;DHT22;4024;52.172;5.378;2022-08-11T11:38:10;31.10;65.40
7958;DHT22;4024;52.172;5.378;2022-08-11T11:40:37;31.30;64.30
7958;DHT22;4024;52.172;5.378;2022-08-11T11:43:04;31.30;64.20
7958;DHT22;4024;52.172;5.378;2022-08-11T11:45:31;31.30;63.70
7958;DHT22;4024;52.172;5.378;2022-08-11T11:47:58;31.30;64.10
7958;DHT22;4024;52.172;5.378;2022-08-11T11:50:27;31.40;61.60
7958;DHT22;4024;52.172;5.378;2022-08-11T11:52:54;31.40;60.80
7958;DHT22;4024;52.172;5.378;2022-08-11T11:55:22;31.50;61.30
7958;DHT22;4024;52.172;5.378;2022-08-11T11:57:49;31.50;60.70
7958;DHT22;4024;52.172;5.378;2022-08-11T12:00:34;31.50;59.70
7958;DHT22;4024;52.172;5.378;2022-08-11T12:03:18;31.60;59.80
7958;DHT22;4024;52.172;5.378;2022-08-11T12:05:46;31.60;59.80
7958;DHT22;4024;52.172;5.378;2022-08-11T12:08:13;31.70;58.80
7958;DHT22;4024;52.172;5.378;2022-08-11T12:13:10;31.80;57.40
7958;DHT22;4024;52.172;5.378;2022-08-11T12:15:55;31.80;57.30
7958;DHT22;4024;52.172;5.378;2022-08-11T12:18:21;31.90;56.00
7958;DHT22;4024;52.172;5.378;2022-08-11T12:20:47;31.90;55.60
7958;DHT22;4024;52.172;5.378;2022-08-11T12:23:14;32.00;56.50
7958;DHT22;4024;52.172;5.378;2022-08-11T12:25:59;32.00;56.20
7958;DHT22;4024;52.172;5.378;2022-08-11T12:28:44;32.10;56.00
7958;DHT22;4024;52.172;5.378;2022-08-11T12:31:11;32.20;55.40
7958;DHT22;4024;52.172;5.378;2022-08-11T12:33:38;32.20;54.70
7958;DHT22;4024;52.172;5.378;2022-08-11T12:36:07;32.20;55.20
7958;DHT22;4024;52.172;5.378;2022-08-11T12:38:34;32.30;54.50
7958;DHT22;4024;52.172;5.378;2022-08-11T12:41:01;32.30;54.80
7958;DHT22;4024;52.172;5.378;2022-08-11T12:43:46;32.40;55.10
7958;DHT22;4024;52.172;5.378;2022-08-11T12:46:33;32.50;55.60
7958;DHT22;4024;52.172;5.378;2022-08-11T12:49:06;32.50;54.40
7958;DHT22;4024;52.172;5.378;2022-08-11T12:51:54;32.60;54.30
7958;DHT22;4024;52.172;5.378;2022-08-11T12:57:16;32.70;53.70
7958;DHT22;4024;52.172;5.378;2022-08-11T13:00:03;32.70;54.20
7958;DHT22;4024;52.172;5.378;2022-08-11T13:02:47;32.80;54.00
7958;DHT22;4024;52.172;5.378;2022-08-11T13:05:32;32.90;54.30
7958;DHT22;4024;52.172;5.378;2022-08-11T13:08:02;32.90;54.20
7958;DHT22;4024;52.172;5.378;2022-08-11T13:10:28;32.90;53.30
7958;DHT22;4024;52.172;5.378;2022-08-11T13:13:16;32.90;52.50
7958;DHT22;4024;52.172;5.378;2022-08-11T13:15:42;32.90;51.90
7958;DHT22;4024;52.172;5.378;2022-08-11T13:18:11;33.00;52.30
7958;DHT22;4024;52.172;5.378;2022-08-11T13:20:40;33.10;52.00
7958;DHT22;4024;52.172;5.378;2022-08-11T13:23:09;33.10;51.30
7958;DHT22;4024;52.172;5.378;2022-08-11T13:25:38;33.10;50.80
7958;DHT22;4024;52.172;5.378;2022-08-11T13:28:05;33.20;50.20
7958;DHT22;4024;52.172;5.378;2022-08-11T13:30:31;33.20;50.80
7958;DHT22;4024;52.172;5.378;2022-08-11T13:33:16;33.20;50.70
7958;DHT22;4024;52.172;5.378;2022-08-11T13:35:45;33.30;51.20
7958;DHT22;4024;52.172;5.378;2022-08-11T13:38:14;33.30;51.20
7958;DHT22;4024;52.172;5.378;2022-08-11T13:40:41;33.40;51.50
7958;DHT22;4024;52.172;5.378;2022-08-11T13:43:07;33.40;51.10
7958;DHT22;4024;52.172;5.378;2022-08-11T13:45:34;33.40;50.80
7958;DHT22;4024;52.172;5.378;2022-08-11T13:48:02;33.40;50.60
7958;DHT22;4024;52.172;5.378;2022-08-11T13:50:31;33.40;50.00
7958;DHT22;4024;52.172;5.378;2022-08-11T13:53:20;33.50;49.90
7958;DHT22;4024;52.172;5.378;2022-08-11T13:55:46;33.50;50.00
7958;DHT22;4024;52.172;5.378;2022-08-11T13:58:13;33.50;49.60
7958;DHT22;4024;52.172;5.378;2022-08-11T14:00:40;33.50;49.30
7958;DHT22;4024;52.172;5.378;2022-08-11T14:03:11;33.60;49.60
7958;DHT22;4024;52.172;5.378;2022-08-11T14:05:42;33.60;49.60
7958;DHT22;4024;52.172;5.378;2022-08-11T14:08:16;33.70;49.30
7958;DHT22;4024;52.172;5.378;2022-08-11T14:10:44;33.70;49.60
7958;DHT22;4024;52.172;5.378;2022-08-11T14:13:32;33.80;50.00
7958;DHT22;4024;52.172;5.378;2022-08-11T14:16:11;33.80;49.30
7958;DHT22;4024;52.172;5.378;2022-08-11T14:18:42;33.90;48.90
7958;DHT22;4024;52.172;5.378;2022-08-11T14:21:13;33.90;48.80
7958;DHT22;4024;52.172;5.378;2022-08-11T14:24:00;33.90;49.40
7958;DHT22;4024;52.172;5.378;2022-08-11T14:26:27;33.90;49.80
7958;DHT22;4024;52.172;5.378;2022-08-11T14:29:25;33.90;50.10
7958;DHT22;4024;52.172;5.378;2022-08-11T14:32:00;33.90;49.70
7958;DHT22;4024;52.172;5.378;2022-08-11T14:34:28;33.90;49.10
7958;DHT22;4024;52.172;5.378;2022-08-11T14:37:00;34.00;49.10
7958;DHT22;4024;52.172;5.378;2022-08-11T14:39:28;34.00;48.80
7958;DHT22;4024;52.172;5.378;2022-08-11T14:41:56;34.00;49.40
7958;DHT22;4024;52.172;5.378;2022-08-11T14:44:43;34.00;49.60
7958;DHT22;4024;52.172;5.378;2022-08-11T14:47:30;34.10;50.20
7958;DHT22;4024;52.172;5.378;2022-08-11T14:49:57;34.10;49.80
7958;DHT22;4024;52.172;5.378;2022-08-11T14:52:24;34.10;49.40
7958;DHT22;4024;52.172;5.378;2022-08-11T14:54:51;34.10;49.60
7958;DHT22;4024;52.172;5.378;2022-08-11T14:57:38;34.10;49.90
7958;DHT22;4024;52.172;5.378;2022-08-11T15:00:07;34.10;49.60
7958;DHT22;4024;52.172;5.378;2022-08-11T15:02:36;34.10;49.00
7958;DHT22;4024;52.172;5.378;2022-08-11T15:05:22;34.10;49.00
7958;DHT22;4024;52.172;5.378;2022-08-11T15:07:49;34.10;49.30
7958;DHT22;4024;52.172;5.378;2022-08-11T15:10:16;34.00;48.90
7958;DHT22;4024;52.172;5.378;2022-08-11T15:12:43;34.00;49.10
7958;DHT22;4024;52.172;5.378;2022-08-11T15:15:10;33.90;49.40
7958;DHT22;4024;52.172;5.378;2022-08-11T15:18:00;34.00;49.90
7958;DHT22;4024;52.172;5.378;2022-08-11T15:20:28;33.90;50.20
7958;DHT22;4024;52.172;5.378;2022-08-11T15:23:13;33.90;50.40
7958;DHT22;4024;52.172;5.378;2022-08-11T15:26:09;33.90;50.30
7958;DHT22;4024;52.172;5.378;2022-08-11T15:28:38;33.90;49.60
7958;DHT22;4024;52.172;5.378;2022-08-11T15:31:24;33.80;49.80
7958;DHT22;4024;52.172;5.378;2022-08-11T15:33:56;33.80;50.30
7958;DHT22;4024;52.172;5.378;2022-08-11T15:36:44;33.80;50.00
7958;DHT22;4024;52.172;5.378;2022-08-11T15:39:50;33.80;50.10
7958;DHT22;4024;52.172;5.378;2022-08-11T15:45:51;33.80;50.30
7958;DHT22;4024;52.172;5.378;2022-08-11T15:48:40;33.80;50.70
7958;DHT22;4024;52.172;5.378;2022-08-11T15:53:58;33.80;51.20
7958;DHT22;4024;52.172;5.378;2022-08-11T15:56:29;33.80;51.10
7958;DHT22;4024;52.172;5.378;2022-08-11T15:58:57;33.80;51.30
7958;DHT22;4024;52.172;5.378;2022-08-11T16:01:44;33.70;50.70
7958;DHT22;4024;52.172;5.378;2022-08-11T16:04:30;33.70;50.70
7958;DHT22;4024;52.172;5.378;2022-08-11T16:07:00;33.70;50.80
7958;DHT22;4024;52.172;5.378;2022-08-11T16:09:33;33.70;50.30
7958;DHT22;4024;52.172;5.378;2022-08-11T16:12:04;33.70;50.00
7958;DHT22;4024;52.172;5.378;2022-08-11T16:14:35;33.70;50.40
7958;DHT22;4024;52.172;5.378;2022-08-11T16:17:20;33.70;50.60
7958;DHT22;4024;52.172;5.378;2022-08-11T16:19:51;33.70;51.20
7958;DHT22;4024;52.172;5.378;2022-08-11T16:22:22;33.60;51.10
7958;DHT22;4024;52.172;5.378;2022-08-11T16:24:59;33.60;50.90
7958;DHT22;4024;52.172;5.378;2022-08-11T16:27:26;33.60;50.90
7958;DHT22;4024;52.172;5.378;2022-08-11T16:29:55;33.60;51.30
7958;DHT22;4024;52.172;5.378;2022-08-11T16:32:22;33.50;51.10
7958;DHT22;4024;52.172;5.378;2022-08-11T16:35:00;33.60;51.10
7958;DHT22;4024;52.172;5.378;2022-08-11T16:37:46;33.50;50.70
7958;DHT22;4024;52.172;5.378;2022-08-11T16:40:33;33.60;51.20
7958;DHT22;4024;52.172;5.378;2022-08-11T16:43:00;33.50;50.90
7958;DHT22;4024;52.172;5.378;2022-08-11T16:45:47;33.50;50.70
7958;DHT22;4024;52.172;5.378;2022-08-11T16:48:33;33.50;51.20
7958;DHT22;4024;52.172;5.378;2022-08-11T16:51:00;33.50;51.70
7958;DHT22;4024;52.172;5.378;2022-08-11T16:53:29;33.50;51.40
7958;DHT22;4024;52.172;5.378;2022-08-11T16:55:58;33.50;51.50
7958;DHT22;4024;52.172;5.378;2022-08-11T16:58:29;33.50;51.50
7958;DHT22;4024;52.172;5.378;2022-08-11T17:01:16;33.40;51.50
7958;DHT22;4024;52.172;5.378;2022-08-11T17:03:46;33.40;51.80
7958;DHT22;4024;52.172;5.378;2022-08-11T17:06:37;33.40;52.00
7958;DHT22;4024;52.172;5.378;2022-08-11T17:09:29;33.40;52.00
7958;DHT22;4024;52.172;5.378;2022-08-11T17:12:15;33.40;52.20
7958;DHT22;4024;52.172;5.378;2022-08-11T17:15:07;33.40;52.30
7958;DHT22;4024;52.172;5.378;2022-08-11T17:17:55;33.40;52.10
7958;DHT22;4024;52.172;5.378;2022-08-11T17:20:23;33.30;52.20
7958;DHT22;4024;52.172;5.378;2022-08-11T17:22:51;33.30;52.30
7958;DHT22;4024;52.172;5.378;2022-08-11T17:25:44;33.20;52.10
7958;DHT22;4024;52.172;5.378;2022-08-11T17:28:14;33.20;52.00
7958;DHT22;4024;52.172;5.378;2022-08-11T17:30:43;33.20;52.00
7958;DHT22;4024;52.172;5.378;2022-08-11T17:33:28;33.10;52.10
7958;DHT22;4024;52.172;5.378;2022-08-11T17:36:15;33.10;52.00
7958;DHT22;4024;52.172;5.378;2022-08-11T17:38:44;33.00;51.90
7958;DHT22;4024;52.172;5.378;2022-08-11T17:41:12;32.90;51.80
7958;DHT22;4024;52.172;5.378;2022-08-11T17:43:58;32.90;51.80
7958;DHT22;4024;52.172;5.378;2022-08-11T17:46:43;32.90;51.80
7958;DHT22;4024;52.172;5.378;2022-08-11T17:49:29;32.80;51.60
7958;DHT22;4024;52.172;5.378;2022-08-11T17:52:02;32.70;51.90
7958;DHT22;4024;52.172;5.378;2022-08-11T17:54:48;32.60;51.80
7958;DHT22;4024;52.172;5.378;2022-08-11T17:57:33;32.60;52.00
7958;DHT22;4024;52.172;5.378;2022-08-11T18:00:19;32.50;52.20
7958;DHT22;4024;52.172;5.378;2022-08-11T18:02:45;32.50;52.30
7958;DHT22;4024;52.172;5.378;2022-08-11T18:05:33;32.40;52.30
7958;DHT22;4024;52.172;5.378;2022-08-11T18:08:03;32.30;53.00
7958;DHT22;4024;52.172;5.378;2022-08-11T18:10:49;32.30;52.80
7958;DHT22;4024;52.172;5.378;2022-08-11T18:13:37;32.20;52.70
7958;DHT22;4024;52.172;5.378;2022-08-11T18:16:23;32.10;52.60
7958;DHT22;4024;52.172;5.378;2022-08-11T18:19:08;32.00;53.20
7958;DHT22;4024;52.172;5.378;2022-08-11T18:22:00;32.00;52.90
7958;DHT22;4024;52.172;5.378;2022-08-11T18:24:57;31.90;53.00
7958;DHT22;4024;52.172;5.378;2022-08-11T18:27:45;31.80;53.10
7958;DHT22;4024;52.172;5.378;2022-08-11T18:30:35;31.80;53.30
7958;DHT22;4024;52.172;5.378;2022-08-11T18:33:24;31.60;53.20
7958;DHT22;4024;52.172;5.378;2022-08-11T18:36:14;31.60;53.60
7958;DHT22;4024;52.172;5.378;2022-08-11T18:38:58;31.50;53.90
7958;DHT22;4024;52.172;5.378;2022-08-11T18:41:45;31.50;54.20
7958;DHT22;4024;52.172;5.378;2022-08-11T18:44:31;31.40;54.30
7958;DHT22;4024;52.172;5.378;2022-08-11T18:47:19;31.30;54.50
7958;DHT22;4024;52.172;5.378;2022-08-11T18:50:07;31.20;54.80
7958;DHT22;4024;52.172;5.378;2022-08-11T18:52:54;31.10;55.00
7958;DHT22;4024;52.172;5.378;2022-08-11T18:55:39;31.10;55.30
7958;DHT22;4024;52.172;5.378;2022-08-11T18:58:29;31.00;55.80
7958;DHT22;4024;52.172;5.378;2022-08-11T19:01:14;30.90;55.90
7958;DHT22;4024;52.172;5.378;2022-08-11T19:04:01;30.80;56.00
7958;DHT22;4024;52.172;5.378;2022-08-11T19:06:48;30.80;56.30
7958;DHT22;4024;52.172;5.378;2022-08-11T19:09:34;30.70;56.60
7958;DHT22;4024;52.172;5.378;2022-08-11T19:12:22;30.60;57.00
7958;DHT22;4024;52.172;5.378;2022-08-11T19:15:08;30.50;57.20
7958;DHT22;4024;52.172;5.378;2022-08-11T19:17:53;30.50;57.40
7958;DHT22;4024;52.172;5.378;2022-08-11T19:20:38;30.30;57.60
7958;DHT22;4024;52.172;5.378;2022-08-11T19:23:32;30.30;58.00
7958;DHT22;4024;52.172;5.378;2022-08-11T19:26:17;30.20;58.40
7958;DHT22;4024;52.172;5.378;2022-08-11T19:29:04;30.10;58.40
7958;DHT22;4024;52.172;5.378;2022-08-11T19:31:50;30.10;58.90
7958;DHT22;4024;52.172;5.378;2022-08-11T19:34:36;30.00;59.30
7958;DHT22;4024;52.172;5.378;2022-08-11T19:37:22;29.90;59.60
7958;DHT22;4024;52.172;5.378;2022-08-11T19:40:08;29.90;59.80
7958;DHT22;4024;52.172;5.378;2022-08-11T19:42:54;29.80;60.00
7958;DHT22;4024;52.172;5.378;2022-08-11T19:45:41;29.70;60.20
7958;DHT22;4024;52.172;5.378;2022-08-11T19:48:27;29.70;60.40
7958;DHT22;4024;52.172;5.378;2022-08-11T19:51:13;29.60;61.10
7958;DHT22;4024;52.172;5.378;2022-08-11T19:53:58;29.50;61.00
7958;DHT22;4024;52.172;5.378;2022-08-11T19:56:43;29.50;61.60
7958;DHT22;4024;52.172;5.378;2022-08-11T19:59:29;29.40;61.90
7958;DHT22;4024;52.172;5.378;2022-08-11T20:02:14;29.30;62.50
7958;DHT22;4024;52.172;5.378;2022-08-11T20:04:59;29.30;62.90
7958;DHT22;4024;52.172;5.378;2022-08-11T20:07:45;29.20;63.30
7958;DHT22;4024;52.172;5.378;2022-08-11T20:10:31;29.10;63.80
7958;DHT22;4024;52.172;5.378;2022-08-11T20:13:17;29.10;64.70
7958;DHT22;4024;52.172;5.378;2022-08-11T20:16:05;29.00;65.20
7958;DHT22;4024;52.172;5.378;2022-08-11T20:18:50;29.00;65.90
7958;DHT22;4024;52.172;5.378;2022-08-11T20:21:36;28.90;67.30
7958;DHT22;4024;52.172;5.378;2022-08-11T20:24:21;28.80;68.50
7958;DHT22;4024;52.172;5.378;2022-08-11T20:27:07;28.70;69.70
7958;DHT22;4024;52.172;5.378;2022-08-11T20:29:52;28.70;71.10
7958;DHT22;4024;52.172;5.378;2022-08-11T20:32:39;28.70;71.90
7958;DHT22;4024;52.172;5.378;2022-08-11T20:35:24;28.50;73.60